sensor_id;sensor_type;location;lat;lon;timestamp;pressure;altitude;pressure_sealevel;temperature;humidity
39949;BME280;29070;48.102;-1.652;2024-03-06T00:03:30;101693.81;;;3.44;71.79
39949;BME280;29070;48.102;-1.652;2024-03-06T00:08:31;101697.03;;;3.36;71.83
39949;BME280;29070;48.102;-1.652;2024-03-06T00:13:31;101696.47;;;3.33;72.16
39949;BME280;29070;48.102;-1.652;2024-03-06T00:18:31;101695.63;;;3.32;72.22
39949;BME280;29070;48.102;-1.652;2024-03-06T00:23:32;101701.31;;;3.26;72.38
39949;BME280;29070;48.102;-1.652;2024-03-06T00:28:32;101701.78;;;3.20;72.26
39949;BME280;29070;48.102;-1.652;2024-03-06T00:33:33;101700.28;;;3.17;72.45
39949;BME280;29070;48.102;-1.652;2024-03-06T00:38:33;101713.47;;;3.14;72.19
39949;BME280;29070;48.102;-1.652;2024-03-06T00:43:33;101713.59;;;3.13;72.38
39949;BME280;29070;48.102;-1.652;2024-03-06T00:48:34;101711.00;;;3.13;72.63
39949;BME280;29070;48.102;-1.652;2024-03-06T00:53:35;101710.81;;;3.04;72.46
39949;BME280;29070;48.102;-1.652;2024-03-06T00:58:35;101713.97;;;2.97;72.40
39949;BME280;29070;48.102;-1.652;2024-03-06T01:03:37;101712.56;;;2.93;72.58
39949;BME280;29070;48.102;-1.652;2024-03-06T01:08:37;101707.38;;;2.93;73.00
39949;BME280;29070;48.102;-1.652;2024-03-06T01:13:38;101716.25;;;2.90;72.87
39949;BME280;29070;48.102;-1.652;2024-03-06T01:18:38;101707.03;;;2.86;72.97
39949;BME280;29070;48.102;-1.652;2024-03-06T01:23:38;101709.91;;;2.83;72.97
39949;BME280;29070;48.102;-1.652;2024-03-06T01:28:39;101712.72;;;2.80;73.02
39949;BME280;29070;48.102;-1.652;2024-03-06T01:33:39;101707.88;;;2.75;73.13
39949;BME280;29070;48.102;-1.652;2024-03-06T01:38:40;101712.13;;;2.76;73.02
39949;BME280;29070;48.102;-1.652;2024-03-06T01:43:41;101713.78;;;2.77;73.00
39949;BME280;29070;48.102;-1.652;2024-03-06T01:48:42;101710.84;;;2.71;73.05
39949;BME280;29070;48.102;-1.652;2024-03-06T01:53:43;101712.97;;;2.65;73.45
39949;BME280;29070;48.102;-1.652;2024-03-06T01:58:45;101706.84;;;2.55;73.33
39949;BME280;29070;48.102;-1.652;2024-03-06T02:03:46;101716.00;;;2.59;73.22
39949;BME280;29070;48.102;-1.652;2024-03-06T02:08:48;101712.72;;;2.46;73.33
39949;BME280;29070;48.102;-1.652;2024-03-06T02:13:49;101708.25;;;2.48;73.42
39949;BME280;29070;48.102;-1.652;2024-03-06T02:18:54;101703.66;;;2.40;73.37
39949;BME280;29070;48.102;-1.652;2024-03-06T02:23:54;101707.88;;;2.41;73.63
39949;BME280;29070;48.102;-1.652;2024-03-06T02:28:55;101694.81;;;2.43;73.35
39949;BME280;29070;48.102;-1.652;2024-03-06T02:33:56;101700.22;;;2.28;73.67
39949;BME280;29070;48.102;-1.652;2024-03-06T02:38:58;101707.06;;;2.29;73.44
39949;BME280;29070;48.102;-1.652;2024-03-06T02:43:58;101700.00;;;2.32;73.73
39949;BME280;29070;48.102;-1.652;2024-03-06T02:48:59;101701.50;;;2.34;73.49
39949;BME280;29070;48.102;-1.652;2024-03-06T02:53:59;101697.19;;;2.35;73.86
39949;BME280;29070;48.102;-1.652;2024-03-06T02:59:00;101696.69;;;2.29;73.92
39949;BME280;29070;48.102;-1.652;2024-03-06T03:04:03;101693.53;;;2.26;73.88
39949;BME280;29070;48.102;-1.652;2024-03-06T03:09:03;101690.56;;;2.19;73.47
39949;BME280;29070;48.102;-1.652;2024-03-06T03:14:04;101690.56;;;2.19;73.87
39949;BME280;29070;48.102;-1.652;2024-03-06T03:19:04;101679.97;;;2.11;74.19
39949;BME280;29070;48.102;-1.652;2024-03-06T03:24:05;101682.31;;;2.14;74.37
39949;BME280;29070;48.102;-1.652;2024-03-06T03:29:05;101675.72;;;2.10;74.13
39949;BME280;29070;48.102;-1.652;2024-03-06T03:34:05;101663.47;;;2.01;74.23
39949;BME280;29070;48.102;-1.652;2024-03-06T03:39:06;101668.38;;;1.93;73.87
39949;BME280;29070;48.102;-1.652;2024-03-06T03:44:08;101671.47;;;1.98;74.43
39949;BME280;29070;48.102;-1.652;2024-03-06T03:49:08;101670.06;;;1.94;74.28
39949;BME280;29070;48.102;-1.652;2024-03-06T03:54:09;101680.13;;;1.85;74.10
39949;BME280;29070;48.102;-1.652;2024-03-06T03:59:09;101684.38;;;1.86;74.01
39949;BME280;29070;48.102;-1.652;2024-03-06T04:04:10;101680.34;;;1.82;74.08
39949;BME280;29070;48.102;-1.652;2024-03-06T04:09:10;101677.06;;;1.80;74.33
39949;BME280;29070;48.102;-1.652;2024-03-06T04:14:11;101683.78;;;1.83;74.44
39949;BME280;29070;48.102;-1.652;2024-03-06T04:19:11;101681.03;;;1.73;73.99
39949;BME280;29070;48.102;-1.652;2024-03-06T04:24:11;101679.41;;;1.72;74.54
39949;BME280;29070;48.102;-1.652;2024-03-06T04:29:12;101676.28;;;1.56;74.67
39949;BME280;29070;48.102;-1.652;2024-03-06T04:34:13;101678.66;;;1.59;74.87
39949;BME280;29070;48.102;-1.652;2024-03-06T04:39:13;101669.34;;;1.56;74.20
39949;BME280;29070;48.102;-1.652;2024-03-06T04:44:14;101674.19;;;1.61;74.82
39949;BME280;29070;48.102;-1.652;2024-03-06T04:49:15;101674.19;;;1.61;74.42
39949;BME280;29070;48.102;-1.652;2024-03-06T04:54:15;101672.53;;;1.60;74.50
39949;BME280;29070;48.102;-1.652;2024-03-06T04:59:15;101677.94;;;1.57;74.27
39949;BME280;29070;48.102;-1.652;2024-03-06T05:04:16;101677.00;;;1.58;74.43
39949;BME280;29070;48.102;-1.652;2024-03-06T05:09:16;101686.63;;;1.56;74.70
39949;BME280;29070;48.102;-1.652;2024-03-06T05:14:17;101693.47;;;1.57;74.92
39949;BME280;29070;48.102;-1.652;2024-03-06T05:19:17;101692.47;;;1.46;74.72
39949;BME280;29070;48.102;-1.652;2024-03-06T05:24:17;101698.91;;;1.41;74.82
39949;BME280;29070;48.102;-1.652;2024-03-06T05:29:18;101698.91;;;1.41;74.88
39949;BME280;29070;48.102;-1.652;2024-03-06T05:34:18;101695.22;;;1.32;74.58
39949;BME280;29070;48.102;-1.652;2024-03-06T05:39:18;101701.84;;;1.36;75.06
39949;BME280;29070;48.102;-1.652;2024-03-06T05:44:19;101699.97;;;1.38;75.01
39949;BME280;29070;48.102;-1.652;2024-03-06T05:49:19;101703.00;;;1.32;74.91
39949;BME280;29070;48.102;-1.652;2024-03-06T05:54:20;101705.56;;;1.32;74.82
39949;BME280;29070;48.102;-1.652;2024-03-06T05:59:21;101709.78;;;1.22;75.03
39949;BME280;29070;48.102;-1.652;2024-03-06T06:04:21;101713.00;;;1.12;75.21
39949;BME280;29070;48.102;-1.652;2024-03-06T06:09:22;101716.78;;;1.20;75.10
39949;BME280;29070;48.102;-1.652;2024-03-06T06:14:22;101723.84;;;1.18;75.04
39949;BME280;29070;48.102;-1.652;2024-03-06T06:19:22;101726.38;;;1.06;75.03
39949;BME280;29070;48.102;-1.652;2024-03-06T06:24:23;101726.47;;;1.05;74.85
39949;BME280;29070;48.102;-1.652;2024-03-06T06:29:23;101729.88;;;1.05;75.46
39949;BME280;29070;48.102;-1.652;2024-03-06T06:34:23;101731.31;;;1.09;75.06
39949;BME280;29070;48.102;-1.652;2024-03-06T06:39:27;101736.25;;;1.12;74.93
39949;BME280;29070;48.102;-1.652;2024-03-06T06:44:28;101737.09;;;1.13;75.20
39949;BME280;29070;48.102;-1.652;2024-03-06T06:49:28;101737.00;;;1.14;75.11
39949;BME280;29070;48.102;-1.652;2024-03-06T06:54:28;101740.22;;;1.05;74.97
39949;BME280;29070;48.102;-1.652;2024-03-06T06:59:29;101742.91;;;1.04;75.37
39949;BME280;29070;48.102;-1.652;2024-03-06T07:04:29;101743.75;;;1.04;75.47
39949;BME280;29070;48.102;-1.652;2024-03-06T07:09:29;101753.13;;;1.05;75.33
39949;BME280;29070;48.102;-1.652;2024-03-06T07:14:30;101751.78;;;1.12;75.90
39949;BME280;29070;48.102;-1.652;2024-03-06T07:19:31;101754.88;;;1.18;75.66
39949;BME280;29070;48.102;-1.652;2024-03-06T07:24:31;101763.34;;;1.20;75.66
39949;BME280;29070;48.102;-1.652;2024-03-06T07:29:31;101769.88;;;1.12;75.85
39949;BME280;29070;48.102;-1.652;2024-03-06T07:34:32;101764.09;;;1.22;75.98
39949;BME280;29070;48.102;-1.652;2024-03-06T07:39:33;101765.16;;;1.30;75.81
39949;BME280;29070;48.102;-1.652;2024-03-06T07:44:34;101774.88;;;1.40;76.18
39949;BME280;29070;48.102;-1.652;2024-03-06T07:49:36;101775.03;;;1.49;76.27
39949;BME280;29070;48.102;-1.652;2024-03-06T07:54:36;101777.41;;;1.52;75.67
39949;BME280;29070;48.102;-1.652;2024-03-06T07:59:36;101781.22;;;1.60;75.97
39949;BME280;29070;48.102;-1.652;2024-03-06T08:04:37;101778.91;;;1.68;76.17
39949;BME280;29070;48.102;-1.652;2024-03-06T08:09:37;101767.41;;;1.72;76.63
39949;BME280;29070;48.102;-1.652;2024-03-06T08:14:37;101787.94;;;1.86;76.19
39949;BME280;29070;48.102;-1.652;2024-03-06T08:19:38;101785.59;;;1.95;76.28
39949;BME280;29070;48.102;-1.652;2024-03-06T08:24:38;101790.34;;;2.01;76.40
39949;BME280;29070;48.102;-1.652;2024-03-06T08:29:38;101798.16;;;2.12;77.05
39949;BME280;29070;48.102;-1.652;2024-03-06T08:34:39;101801.72;;;2.34;77.04
39949;BME280;29070;48.102;-1.652;2024-03-06T08:39:39;101805.19;;;2.57;76.87
39949;BME280;29070;48.102;-1.652;2024-03-06T08:44:39;101796.88;;;2.76;77.27
39949;BME280;29070;48.102;-1.652;2024-03-06T08:49:40;101800.28;;;2.99;77.07
39949;BME280;29070;48.102;-1.652;2024-03-06T08:54:40;101802.59;;;3.36;77.44
39949;BME280;29070;48.102;-1.652;2024-03-06T08:59:43;101797.25;;;3.60;77.28
39949;BME280;29070;48.102;-1.652;2024-03-06T09:04:44;101802.78;;;3.99;77.37
39949;BME280;29070;48.102;-1.652;2024-03-06T09:09:45;101805.81;;;4.46;77.52
39949;BME280;29070;48.102;-1.652;2024-03-06T09:14:46;101802.19;;;4.89;77.57
39949;BME280;29070;48.102;-1.652;2024-03-06T09:19:46;101804.69;;;5.31;77.35
39949;BME280;29070;48.102;-1.652;2024-03-06T09:24:47;101807.75;;;5.76;77.23
39949;BME280;29070;48.102;-1.652;2024-03-06T09:29:48;101810.38;;;6.24;77.25
39949;BME280;29070;48.102;-1.652;2024-03-06T09:34:48;101811.63;;;6.77;76.69
39949;BME280;29070;48.102;-1.652;2024-03-06T09:39:49;101805.97;;;7.19;76.43
39949;BME280;29070;48.102;-1.652;2024-03-06T09:44:51;101806.78;;;7.66;76.59
39949;BME280;29070;48.102;-1.652;2024-03-06T09:49:52;101810.47;;;8.17;75.87
39949;BME280;29070;48.102;-1.652;2024-03-06T09:54:55;101821.34;;;8.48;75.28
39949;BME280;29070;48.102;-1.652;2024-03-06T09:59:57;101809.25;;;8.82;75.12
39949;BME280;29070;48.102;-1.652;2024-03-06T10:04:57;101812.13;;;9.05;75.19
39949;BME280;29070;48.102;-1.652;2024-03-06T10:09:57;101814.16;;;9.19;74.75
39949;BME280;29070;48.102;-1.652;2024-03-06T10:14:58;101807.44;;;9.16;74.47
39949;BME280;29070;48.102;-1.652;2024-03-06T10:19:58;101804.94;;;9.58;74.31
39949;BME280;29070;48.102;-1.652;2024-03-06T10:25:01;101803.00;;;10.01;74.09
39949;BME280;29070;48.102;-1.652;2024-03-06T10:30:03;101809.72;;;10.36;73.70
39949;BME280;29070;48.102;-1.652;2024-03-06T10:35:04;101803.63;;;10.52;73.18
39949;BME280;29070;48.102;-1.652;2024-03-06T10:40:09;101810.28;;;10.79;72.88
39949;BME280;29070;48.102;-1.652;2024-03-06T10:45:13;101812.97;;;11.11;72.69
39949;BME280;29070;48.102;-1.652;2024-03-06T10:50:15;101804.47;;;11.32;72.31
39949;BME280;29070;48.102;-1.652;2024-03-06T10:55:16;101802.63;;;11.63;72.45
39949;BME280;29070;48.102;-1.652;2024-03-06T11:00:17;101805.09;;;11.65;71.98
39949;BME280;29070;48.102;-1.652;2024-03-06T11:05:19;101804.28;;;11.64;71.54
39949;BME280;29070;48.102;-1.652;2024-03-06T11:10:32;101793.63;;;12.04;70.03
39949;BME280;29070;48.102;-1.652;2024-03-06T11:15:33;101792.22;;;12.16;70.57
39949;BME280;29070;48.102;-1.652;2024-03-06T11:20:33;101796.50;;;12.47;70.44
39949;BME280;29070;48.102;-1.652;2024-03-06T11:31:11;101796.13;;;12.80;69.06
39949;BME280;29070;48.102;-1.652;2024-03-06T11:41:23;101798.56;;;12.96;68.29
39949;BME280;29070;48.102;-1.652;2024-03-06T11:46:43;101802.84;;;12.97;66.67
39949;BME280;29070;48.102;-1.652;2024-03-06T11:51:44;101800.88;;;13.21;67.80
39949;BME280;29070;48.102;-1.652;2024-03-06T11:56:46;101798.75;;;13.10;67.57
39949;BME280;29070;48.102;-1.652;2024-03-06T12:01:51;101794.59;;;13.01;67.72
39949;BME280;29070;48.102;-1.652;2024-03-06T12:06:55;101806.75;;;13.02;67.34
39949;BME280;29070;48.102;-1.652;2024-03-06T12:11:56;101800.47;;;13.03;67.28
39949;BME280;29070;48.102;-1.652;2024-03-06T12:17:01;101793.50;;;12.80;67.00
39949;BME280;29070;48.102;-1.652;2024-03-06T12:22:04;101792.25;;;12.76;67.47
39949;BME280;29070;48.102;-1.652;2024-03-06T12:27:07;101790.06;;;12.80;67.21
39949;BME280;29070;48.102;-1.652;2024-03-06T12:32:16;101771.03;;;12.99;66.11
39949;BME280;29070;48.102;-1.652;2024-03-06T12:37:17;101777.34;;;13.20;66.60
39949;BME280;29070;48.102;-1.652;2024-03-06T12:42:18;101768.25;;;13.22;66.55
39949;BME280;29070;48.102;-1.652;2024-03-06T12:47:18;101762.53;;;13.55;66.20
39949;BME280;29070;48.102;-1.652;2024-03-06T12:52:18;101765.34;;;13.32;66.00
39949;BME280;29070;48.102;-1.652;2024-03-06T12:57:19;101760.25;;;13.52;65.83
39949;BME280;29070;48.102;-1.652;2024-03-06T13:02:19;101761.84;;;13.46;65.76
39949;BME280;29070;48.102;-1.652;2024-03-06T13:07:19;101750.34;;;13.54;65.60
39949;BME280;29070;48.102;-1.652;2024-03-06T13:12:20;101746.16;;;13.60;65.44
39949;BME280;29070;48.102;-1.652;2024-03-06T13:17:20;101737.28;;;13.46;65.09
39949;BME280;29070;48.102;-1.652;2024-03-06T13:22:20;101740.81;;;13.53;64.97
39949;BME280;29070;48.102;-1.652;2024-03-06T13:27:22;101732.78;;;13.40;65.17
39949;BME280;29070;48.102;-1.652;2024-03-06T13:32:22;101737.25;;;13.24;65.25
39949;BME280;29070;48.102;-1.652;2024-03-06T13:37:22;101732.97;;;13.23;64.99
39949;BME280;29070;48.102;-1.652;2024-03-06T13:42:23;101730.56;;;13.07;65.19
39949;BME280;29070;48.102;-1.652;2024-03-06T13:47:24;101717.75;;;13.04;65.15
39949;BME280;29070;48.102;-1.652;2024-03-06T13:52:24;101719.78;;;13.38;65.13
39949;BME280;29070;48.102;-1.652;2024-03-06T13:57:25;101715.56;;;13.44;64.98
39949;BME280;29070;48.102;-1.652;2024-03-06T14:02:25;101725.91;;;13.67;64.68
39949;BME280;29070;48.102;-1.652;2024-03-06T14:07:25;101730.34;;;13.66;64.68
39949;BME280;29070;48.102;-1.652;2024-03-06T14:12:26;101722.97;;;13.55;64.61
39949;BME280;29070;48.102;-1.652;2024-03-06T14:17:26;101721.97;;;13.34;64.68
39949;BME280;29070;48.102;-1.652;2024-03-06T14:22:26;101716.06;;;13.32;65.03
39949;BME280;29070;48.102;-1.652;2024-03-06T14:27:27;101714.25;;;13.33;64.58
39949;BME280;29070;48.102;-1.652;2024-03-06T14:32:28;101717.25;;;13.51;64.60
39949;BME280;29070;48.102;-1.652;2024-03-06T14:37:28;101714.78;;;13.71;64.07
39949;BME280;29070;48.102;-1.652;2024-03-06T14:42:28;101709.38;;;13.80;64.07
39949;BME280;29070;48.102;-1.652;2024-03-06T14:47:29;101721.06;;;13.70;64.20
39949;BME280;29070;48.102;-1.652;2024-03-06T14:52:30;101710.88;;;13.67;64.01
39949;BME280;29070;48.102;-1.652;2024-03-06T14:57:30;101706.56;;;13.60;63.95
39949;BME280;29070;48.102;-1.652;2024-03-06T15:02:30;101700.88;;;13.56;63.90
39949;BME280;29070;48.102;-1.652;2024-03-06T15:07:31;101693.66;;;13.43;63.67
39949;BME280;29070;48.102;-1.652;2024-03-06T15:12:31;101695.97;;;13.31;63.86
39949;BME280;29070;48.102;-1.652;2024-03-06T15:17:32;101689.97;;;13.23;63.62
39949;BME280;29070;48.102;-1.652;2024-03-06T15:22:33;101693.81;;;13.20;63.67
39949;BME280;29070;48.102;-1.652;2024-03-06T15:27:40;101688.41;;;13.28;63.29
39949;BME280;29070;48.102;-1.652;2024-03-06T15:32:41;101678.03;;;13.27;63.40
39949;BME280;29070;48.102;-1.652;2024-03-06T15:37:41;101682.50;;;13.26;63.02
39949;BME280;29070;48.102;-1.652;2024-03-06T15:42:43;101679.63;;;13.21;62.99
39949;BME280;29070;48.102;-1.652;2024-03-06T15:47:44;101681.63;;;13.19;62.97
39949;BME280;29070;48.102;-1.652;2024-03-06T15:52:45;101681.13;;;13.09;62.55
39949;BME280;29070;48.102;-1.652;2024-03-06T15:57:45;101677.34;;;12.96;62.53
39949;BME280;29070;48.102;-1.652;2024-03-06T16:02:46;101681.38;;;12.92;62.73
39949;BME280;29070;48.102;-1.652;2024-03-06T16:07:46;101679.22;;;12.81;62.89
39949;BME280;29070;48.102;-1.652;2024-03-06T16:12:47;101680.53;;;12.70;62.91
39949;BME280;29070;48.102;-1.652;2024-03-06T16:17:47;101677.34;;;12.60;62.71
39949;BME280;29070;48.102;-1.652;2024-03-06T16:22:47;101675.91;;;12.57;62.60
39949;BME280;29070;48.102;-1.652;2024-03-06T16:27:47;101673.03;;;12.52;62.70
39949;BME280;29070;48.102;-1.652;2024-03-06T16:32:48;101675.66;;;12.52;62.53
39949;BME280;29070;48.102;-1.652;2024-03-06T16:37:49;101674.38;;;12.48;62.42
39949;BME280;29070;48.102;-1.652;2024-03-06T16:42:51;101674.38;;;12.48;62.51
39949;BME280;29070;48.102;-1.652;2024-03-06T16:47:51;101678.00;;;12.47;62.52
39949;BME280;29070;48.102;-1.652;2024-03-06T16:52:51;101669.84;;;12.42;62.56
39949;BME280;29070;48.102;-1.652;2024-03-06T16:57:51;101687.03;;;12.38;62.52
39949;BME280;29070;48.102;-1.652;2024-03-06T17:02:52;101685.50;;;12.29;62.60
39949;BME280;29070;48.102;-1.652;2024-03-06T17:07:55;101682.19;;;12.27;62.61
39949;BME280;29070;48.102;-1.652;2024-03-06T17:12:56;101679.94;;;12.24;62.73
39949;BME280;29070;48.102;-1.652;2024-03-06T17:17:56;101691.09;;;12.26;62.82
39949;BME280;29070;48.102;-1.652;2024-03-06T17:22:57;101686.56;;;12.19;62.93
39949;BME280;29070;48.102;-1.652;2024-03-06T17:27:58;101687.13;;;12.15;63.04
39949;BME280;29070;48.102;-1.652;2024-03-06T17:32:58;101684.03;;;12.11;63.31
39949;BME280;29070;48.102;-1.652;2024-03-06T17:37:58;101694.91;;;12.08;63.08
39949;BME280;29070;48.102;-1.652;2024-03-06T17:42:59;101697.25;;;12.03;63.23
39949;BME280;29070;48.102;-1.652;2024-03-06T17:47:59;101702.16;;;11.91;63.22
39949;BME280;29070;48.102;-1.652;2024-03-06T17:53:00;101698.13;;;11.80;63.33
39949;BME280;29070;48.102;-1.652;2024-03-06T17:58:00;101698.47;;;11.77;63.53
39949;BME280;29070;48.102;-1.652;2024-03-06T18:03:01;101699.56;;;11.68;63.31
39949;BME280;29070;48.102;-1.652;2024-03-06T18:08:02;101713.22;;;11.63;63.58
39949;BME280;29070;48.102;-1.652;2024-03-06T18:13:02;101714.75;;;11.58;63.66
39949;BME280;29070;48.102;-1.652;2024-03-06T18:18:03;101706.56;;;11.53;63.68
39949;BME280;29070;48.102;-1.652;2024-03-06T18:23:04;101717.81;;;11.47;63.77
39949;BME280;29070;48.102;-1.652;2024-03-06T18:28:05;101718.94;;;11.44;63.84
39949;BME280;29070;48.102;-1.652;2024-03-06T18:33:05;101719.84;;;11.36;63.85
39949;BME280;29070;48.102;-1.652;2024-03-06T18:38:06;101716.28;;;11.29;63.83
39949;BME280;29070;48.102;-1.652;2024-03-06T18:43:06;101725.69;;;11.23;63.90
39949;BME280;29070;48.102;-1.652;2024-03-06T18:48:07;101726.53;;;11.16;63.78
39949;BME280;29070;48.102;-1.652;2024-03-06T18:53:07;101728.88;;;11.11;63.85
39949;BME280;29070;48.102;-1.652;2024-03-06T18:58:07;101727.44;;;11.00;64.00
39949;BME280;29070;48.102;-1.652;2024-03-06T19:03:08;101726.69;;;10.91;63.92
39949;BME280;29070;48.102;-1.652;2024-03-06T19:08:08;101731.63;;;10.86;63.98
39949;BME280;29070;48.102;-1.652;2024-03-06T19:13:09;101729.84;;;10.78;64.13
39949;BME280;29070;48.102;-1.652;2024-03-06T19:18:09;101729.84;;;10.78;64.02
39949;BME280;29070;48.102;-1.652;2024-03-06T19:23:10;101721.69;;;10.73;64.05
39949;BME280;29070;48.102;-1.652;2024-03-06T19:28:11;101721.22;;;10.70;63.97
39949;BME280;29070;48.102;-1.652;2024-03-06T19:33:12;101719.09;;;10.57;64.06
39949;BME280;29070;48.102;-1.652;2024-03-06T19:38:12;101728.47;;;10.51;64.28
39949;BME280;29070;48.102;-1.652;2024-03-06T19:43:15;101717.66;;;10.46;64.28
39949;BME280;29070;48.102;-1.652;2024-03-06T19:48:15;101720.66;;;10.43;64.26
39949;BME280;29070;48.102;-1.652;2024-03-06T19:53:17;101725.06;;;10.42;64.24
39949;BME280;29070;48.102;-1.652;2024-03-06T19:58:17;101720.03;;;10.33;64.17
39949;BME280;29070;48.102;-1.652;2024-03-06T20:03:18;101725.91;;;10.35;64.44
39949;BME280;29070;48.102;-1.652;2024-03-06T20:08:19;101723.63;;;10.32;64.48
39949;BME280;29070;48.102;-1.652;2024-03-06T20:13:21;101731.13;;;10.26;64.51
39949;BME280;29070;48.102;-1.652;2024-03-06T20:18:21;101734.78;;;10.25;64.59
39949;BME280;29070;48.102;-1.652;2024-03-06T20:23:22;101731.66;;;10.22;64.51
39949;BME280;29070;48.102;-1.652;2024-03-06T20:28:24;101736.09;;;10.21;64.64
39949;BME280;29070;48.102;-1.652;2024-03-06T20:33:25;101733.63;;;10.20;64.83
39949;BME280;29070;48.102;-1.652;2024-03-06T20:38:25;101744.47;;;10.17;64.79
39949;BME280;29070;48.102;-1.652;2024-03-06T20:43:25;101733.31;;;10.15;64.78
39949;BME280;29070;48.102;-1.652;2024-03-06T20:48:26;101731.00;;;10.11;64.72
39949;BME280;29070;48.102;-1.652;2024-03-06T20:53:27;101720.19;;;10.06;65.00
39949;BME280;29070;48.102;-1.652;2024-03-06T20:58:28;101714.81;;;10.00;65.01
39949;BME280;29070;48.102;-1.652;2024-03-06T21:03:28;101717.13;;;9.95;65.02
39949;BME280;29070;48.102;-1.652;2024-03-06T21:08:28;101711.56;;;9.89;65.04
39949;BME280;29070;48.102;-1.652;2024-03-06T21:13:29;101713.53;;;9.87;65.03
39949;BME280;29070;48.102;-1.652;2024-03-06T21:18:29;101710.41;;;9.76;64.98
39949;BME280;29070;48.102;-1.652;2024-03-06T21:23:29;101706.13;;;9.74;65.14
39949;BME280;29070;48.102;-1.652;2024-03-06T21:28:31;101702.72;;;9.66;65.24
39949;BME280;29070;48.102;-1.652;2024-03-06T21:33:31;101696.81;;;9.56;65.31
39949;BME280;29070;48.102;-1.652;2024-03-06T21:38:33;101694.50;;;9.44;65.46
39949;BME280;29070;48.102;-1.652;2024-03-06T21:43:34;101697.94;;;9.37;65.29
39949;BME280;29070;48.102;-1.652;2024-03-06T21:48:34;101690.56;;;9.24;65.37
39949;BME280;29070;48.102;-1.652;2024-03-06T21:53:36;101682.38;;;9.19;65.69
39949;BME280;29070;48.102;-1.652;2024-03-06T21:58:37;101687.63;;;9.10;65.45
39949;BME280;29070;48.102;-1.652;2024-03-06T22:03:38;101680.19;;;8.97;65.66
39949;BME280;29070;48.102;-1.652;2024-03-06T22:08:38;101672.81;;;8.85;65.63
39949;BME280;29070;48.102;-1.652;2024-03-06T22:13:38;101681.47;;;8.77;65.93
39949;BME280;29070;48.102;-1.652;2024-03-06T22:18:39;101679.97;;;8.66;65.92
39949;BME280;29070;48.102;-1.652;2024-03-06T22:23:40;101672.72;;;8.60;66.09
39949;BME280;29070;48.102;-1.652;2024-03-06T22:28:40;101675.66;;;8.49;66.28
39949;BME280;29070;48.102;-1.652;2024-03-06T22:33:42;101677.53;;;8.38;66.09
39949;BME280;29070;48.102;-1.652;2024-03-06T22:38:44;101673.53;;;8.26;66.38
39949;BME280;29070;48.102;-1.652;2024-03-06T22:43:44;101669.59;;;8.22;66.52
39949;BME280;29070;48.102;-1.652;2024-03-06T22:48:44;101676.13;;;8.18;66.47
39949;BME280;29070;48.102;-1.652;2024-03-06T22:53:45;101676.41;;;8.07;66.58
39949;BME280;29070;48.102;-1.652;2024-03-06T22:58:45;101678.31;;;8.05;66.54
39949;BME280;29070;48.102;-1.652;2024-03-06T23:03:46;101672.91;;;7.98;67.04
39949;BME280;29070;48.102;-1.652;2024-03-06T23:08:46;101667.16;;;7.94;66.76
39949;BME280;29070;48.102;-1.652;2024-03-06T23:13:46;101666.00;;;7.89;66.85
39949;BME280;29070;48.102;-1.652;2024-03-06T23:18:47;101665.78;;;7.82;67.14
39949;BME280;29070;48.102;-1.652;2024-03-06T23:23:50;101661.47;;;7.73;67.26
39949;BME280;29070;48.102;-1.652;2024-03-06T23:28:50;101653.41;;;7.66;67.24
39949;BME280;29070;48.102;-1.652;2024-03-06T23:33:50;101657.47;;;7.60;67.32
39949;BME280;29070;48.102;-1.652;2024-03-06T23:38:51;101655.06;;;7.49;67.46
39949;BME280;29070;48.102;-1.652;2024-03-06T23:43:52;101656.97;;;7.39;67.77
39949;BME280;29070;48.102;-1.652;2024-03-06T23:48:53;101652.81;;;7.28;67.71
39949;BME280;29070;48.102;-1.652;2024-03-06T23:53:53;101647.34;;;7.21;67.82
39949;BME280;29070;48.102;-1.652;2024-03-06T23:58:54;101647.94;;;7.15;68.04
